createdAt,value
2022-09-20T00:01:28.504Z,97277.41
2022-09-20T00:03:57.871Z,97280.88
2022-09-20T00:06:30.532Z,97288.44
2022-09-20T00:08:57.781Z,97292.63
2022-09-20T00:11:26.823Z,97296.44
2022-09-20T00:13:56.104Z,97304.34
2022-09-20T00:16:29.297Z,97316.72
2022-09-20T00:18:57.889Z,97295.84
2022-09-20T00:21:29.827Z,97321.53
2022-09-20T00:23:57.521Z,97317.56
2022-09-20T00:26:25.657Z,97328.13
2022-09-20T00:28:52.193Z,97352.28
2022-09-20T00:31:19.429Z,97359.31
2022-09-20T00:34:04.965Z,97370.28
2022-09-20T00:36:31.508Z,97370.28
2022-09-20T00:38:59.958Z,97361.03
2022-09-20T00:41:27.205Z,97354.63
2022-09-20T00:43:54.890Z,97355.81
2022-09-20T00:46:32.936Z,97362.06
2022-09-20T00:49:05.995Z,97360.06
2022-09-20T00:51:37.220Z,97348.22
2022-09-20T00:54:06.214Z,97340.16
2022-09-20T00:56:36.059Z,97348.03
2022-09-20T00:59:14.577Z,97334.34
2022-09-20T01:01:42.072Z,97338.56
2022-09-20T01:04:09.107Z,97344.44
2022-09-20T01:06:36.119Z,97345.72
2022-09-20T01:09:05.442Z,97375.69
2022-09-20T01:11:32.017Z,97379.06
2022-09-20T01:13:58.376Z,97378.78
2022-09-20T01:16:26.840Z,97388.13
2022-09-20T01:18:55.974Z,97364.50
2022-09-20T01:21:22.526Z,97360.38
2022-09-20T01:24:00.210Z,97367.81
2022-09-20T01:26:41.764Z,97370.75
2022-09-20T01:29:34.879Z,97382.13
2022-09-20T01:32:03.927Z,97383.28
2022-09-20T01:34:35.783Z,97388.47
2022-09-20T01:37:26.515Z,97376.28
2022-09-20T01:40:16.834Z,97383.44
2022-09-20T01:42:57.434Z,97375.56
2022-09-20T01:45:28.635Z,97363.34
2022-09-20T01:48:13.105Z,97353.00
2022-09-20T01:50:51.620Z,97340.66
2022-09-20T01:53:48.555Z,97281.28
2022-09-20T01:56:31.079Z,97306.50
2022-09-20T01:59:23.168Z,97290.81
2022-09-20T02:01:53.757Z,97298.41
2022-09-20T02:04:57.924Z,97289.50
2022-09-20T02:07:49.236Z,97276.72
2022-09-20T02:10:55.857Z,97281.50
2022-09-20T02:13:33.189Z,97260.88
2022-09-20T02:16:08.847Z,97270.94
2022-09-20T02:18:55.440Z,97260.69
2022-09-20T02:22:11.415Z,97264.34
2022-09-20T02:25:02.449Z,97265.59
2022-09-20T02:27:56.917Z,97269.63
2022-09-20T02:31:07.481Z,97285.56
2022-09-20T02:33:52.065Z,97289.94
2022-09-20T02:36:43.618Z,97297.44
2022-09-20T02:39:22.180Z,97291.97
2022-09-20T02:41:56.631Z,97311.91
2022-09-20T02:44:40.601Z,97295.50
2022-09-20T02:47:27.884Z,97312.09
2022-09-20T02:50:22.721Z,97325.06
2022-09-20T02:53:04.249Z,97338.69
2022-09-20T02:55:55.699Z,97338.69
2022-09-20T02:58:43.545Z,97337.72
2022-09-20T03:01:34.640Z,97328.31
2022-09-20T03:04:29.017Z,97318.00
2022-09-20T03:07:01.963Z,97310.56
2022-09-20T03:09:42.901Z,97309.09
2022-09-20T03:12:34.230Z,97298.84
2022-09-20T03:15:11.647Z,97301.47
2022-09-20T03:17:58.588Z,97291.31
2022-09-20T03:20:43.068Z,97295.91
2022-09-20T03:23:35.742Z,97299.22
2022-09-20T03:26:28.187Z,97314.72
2022-09-20T03:29:12.163Z,97320.34
2022-09-20T03:31:56.429Z,97311.06
2022-09-20T03:34:51.207Z,97309.78
2022-09-20T03:37:29.392Z,97302.84
2022-09-20T03:40:15.465Z,97302.41
2022-09-20T03:42:48.105Z,97285.28
2022-09-20T03:45:24.145Z,97298.75
2022-09-20T03:48:31.458Z,97298.06
2022-09-20T03:51:16.163Z,97300.22
2022-09-20T03:54:01.952Z,97302.19
2022-09-20T03:56:54.737Z,97297.91
2022-09-20T03:59:55.996Z,97299.22
2022-09-20T04:02:40.870Z,97289.50
2022-09-20T04:05:16.723Z,97292.78
2022-09-20T04:08:14.087Z,97290.41
2022-09-20T04:11:20.783Z,97305.31
2022-09-20T04:13:59.190Z,97305.31
2022-09-20T04:16:34.444Z,97309.28
2022-09-20T04:19:21.647Z,97295.31
2022-09-20T04:21:57.634Z,97319.31
2022-09-20T04:24:30.009Z,97320.00
2022-09-20T04:27:05.343Z,97320.69
2022-09-20T04:29:53.088Z,97336.19
2022-09-20T04:32:27.630Z,97325.31
2022-09-20T04:35:30.609Z,97316.44
2022-09-20T04:37:57.106Z,97341.97
2022-09-20T04:40:52.136Z,97353.28
2022-09-20T04:43:40.325Z,97370.78
2022-09-20T04:46:28.423Z,97370.78
2022-09-20T04:49:19.031Z,97377.00
2022-09-20T04:52:04.083Z,97379.69
2022-09-20T04:54:57.141Z,97375.81
2022-09-20T04:58:01.540Z,97388.13
2022-09-20T05:00:43.519Z,97390.97
2022-09-20T05:03:50.881Z,97396.25
2022-09-20T05:06:34.680Z,97400.84
2022-09-20T05:09:36.688Z,97316.66
2022-09-20T05:12:16.870Z,97403.16
2022-09-20T05:15:08.295Z,97407.44
2022-09-20T05:18:10.914Z,97385.38
2022-09-20T05:20:51.679Z,97386.59
2022-09-20T05:23:47.323Z,97386.47
2022-09-20T05:26:34.853Z,97364.25
2022-09-20T05:29:25.243Z,97372.19
2022-09-20T05:32:01.435Z,97371.00
2022-09-20T05:34:42.469Z,97375.63
2022-09-20T05:37:33.212Z,97359.31
2022-09-20T05:40:15.237Z,97374.09
2022-09-20T05:43:00.349Z,97381.06
2022-09-20T05:45:39.704Z,97375.13
2022-09-20T05:48:18.135Z,97376.09
2022-09-20T05:50:56.176Z,97381.34
2022-09-20T05:53:48.960Z,97392.22
2022-09-20T05:56:37.140Z,97384.25
2022-09-20T05:59:25.780Z,97402.59
2022-09-20T06:02:15.317Z,97400.56
2022-09-20T06:05:17.402Z,97401.72
2022-09-20T06:08:12.554Z,97416.19
2022-09-20T06:11:01.983Z,97415.63
2022-09-20T06:13:31.401Z,97420.19
2022-09-20T06:16:05.854Z,97436.06
2022-09-20T06:18:42.222Z,97426.72
2022-09-20T06:21:23.260Z,97429.38
2022-09-20T06:23:49.618Z,97428.31
2022-09-20T06:26:27.660Z,97404.94
2022-09-20T06:28:59.352Z,97415.00
2022-09-20T06:31:26.739Z,97393.94
2022-09-20T06:33:59.187Z,97364.91
2022-09-20T06:36:49.612Z,97365.81
2022-09-20T06:40:02.027Z,97352.53
2022-09-20T06:42:29.524Z,97348.75
2022-09-20T06:44:56.722Z,97354.19
2022-09-20T06:47:23.267Z,97355.22
2022-09-20T06:49:50.447Z,97351.34
2022-09-20T06:52:22.662Z,97350.88
2022-09-20T06:54:55.253Z,97348.41
2022-09-20T06:57:39.421Z,97361.91
2022-09-20T07:00:07.014Z,97358.88
2022-09-20T07:02:33.455Z,97366.72
2022-09-20T07:04:59.888Z,97353.34
2022-09-20T07:07:26.314Z,97357.94
2022-09-20T07:09:52.700Z,97386.13
2022-09-20T07:12:19.066Z,97403.44
2022-09-20T07:14:45.537Z,97434.09
2022-09-20T07:17:12.067Z,97449.03
2022-09-20T07:19:38.421Z,97527.53
2022-09-20T07:22:04.847Z,97884.06
2022-09-20T07:24:32.150Z,98056.66
2022-09-20T07:27:04.225Z,98387.72
2022-09-20T07:29:31.497Z,98536.56
2022-09-20T07:31:58.602Z,98593.41
2022-09-20T07:34:25.893Z,98686.34
2022-09-20T07:36:52.369Z,98759.97
2022-09-20T07:39:18.994Z,98820.38
2022-09-20T07:41:48.315Z,98886.97
2022-09-20T07:44:24.191Z,98909.06
2022-09-20T07:46:50.644Z,98864.63
2022-09-20T07:49:17.324Z,98830.88
2022-09-20T07:51:43.885Z,98811.56
2022-09-20T07:54:10.680Z,98846.50
2022-09-20T07:56:37.859Z,98835.19
2022-09-20T07:59:04.370Z,98864.44
2022-09-20T08:01:31.168Z,98827.66
2022-09-20T08:03:57.593Z,98784.94
2022-09-20T08:06:24.652Z,98797.81
2022-09-20T08:08:51.664Z,98748.50
2022-09-20T08:11:20.393Z,98711.03
2022-09-20T08:14:06.294Z,98743.75
2022-09-20T08:16:41.834Z,98713.78
2022-09-20T08:19:09.308Z,98767.38
2022-09-20T08:21:38.767Z,98833.09
2022-09-20T08:24:05.304Z,98850.00
2022-09-20T08:26:31.801Z,98841.81
2022-09-20T08:28:59.750Z,98804.50
2022-09-20T08:31:31.314Z,98807.22
2022-09-20T08:33:59.022Z,98804.03
2022-09-20T08:36:26.212Z,98781.41
2022-09-20T08:41:48.535Z,98737.09
2022-09-20T08:44:26.262Z,98719.53
2022-09-20T08:47:19.123Z,98732.78
2022-09-20T08:49:46.722Z,98752.75
2022-09-20T08:52:19.705Z,98719.31
2022-09-20T08:54:46.798Z,98733.63
2022-09-20T08:57:18.476Z,98738.78
2022-09-20T08:59:45.063Z,98727.84
2022-09-20T09:02:20.910Z,98731.94
2022-09-20T09:04:49.765Z,98738.41
2022-09-20T09:07:24.365Z,98770.56
2022-09-20T09:09:54.195Z,98773.00
2022-09-20T09:12:28.044Z,98771.88
2022-09-20T09:14:59.709Z,98738.75
2022-09-20T09:17:28.705Z,98769.16
2022-09-20T09:20:14.894Z,98827.84
2022-09-20T09:22:44.006Z,98883.66
2022-09-20T09:25:21.475Z,98879.56
2022-09-20T09:27:56.058Z,98896.09
2022-09-20T09:30:26.344Z,98931.16
2022-09-20T09:33:13.491Z,98911.59
2022-09-20T09:35:39.883Z,98867.00
2022-09-20T09:38:18.543Z,98851.00
2022-09-20T09:40:57.851Z,98866.31
2022-09-20T09:43:29.952Z,98844.06
2022-09-20T09:46:16.626Z,98864.34
2022-09-20T09:48:47.367Z,98832.09
2022-09-20T09:51:19.291Z,98862.38
2022-09-20T09:53:47.788Z,98843.16
2022-09-20T09:56:22.939Z,98917.56
2022-09-20T09:59:19.156Z,99078.44
2022-09-20T10:02:12.907Z,99115.19
2022-09-20T10:04:52.600Z,99147.94
2022-09-20T10:07:44.894Z,99225.00
2022-09-20T10:10:29.437Z,99179.72
2022-09-20T10:13:04.253Z,99127.34
2022-09-20T10:15:57.819Z,99105.50
2022-09-20T10:18:42.310Z,99063.16
2022-09-20T10:21:25.029Z,99057.19
2022-09-20T10:24:03.699Z,99041.03
2022-09-20T10:26:49.095Z,99054.84
2022-09-20T10:29:21.766Z,99033.41
2022-09-20T10:32:18.888Z,99051.16
2022-09-20T10:35:08.469Z,99048.34
2022-09-20T10:38:08.145Z,99037.06
2022-09-20T10:41:30.683Z,99024.53
2022-09-20T10:44:06.031Z,99012.28
2022-09-20T10:46:40.576Z,99025.22
2022-09-20T10:49:23.725Z,99021.75
2022-09-20T10:52:20.342Z,99057.69
2022-09-20T10:55:09.184Z,99063.19
2022-09-20T10:58:01.520Z,99075.81
2022-09-20T11:00:45.280Z,99082.81
2022-09-20T11:03:53.376Z,99089.50
2022-09-20T11:06:52.453Z,99099.66
2022-09-20T11:09:34.762Z,99064.34
2022-09-20T11:12:04.335Z,99084.91
2022-09-20T11:14:44.082Z,99075.50
2022-09-20T11:17:43.121Z,99081.97
2022-09-20T11:20:22.057Z,99074.00
2022-09-20T11:23:14.488Z,99065.34
2022-09-20T11:25:51.811Z,99014.13
2022-09-20T11:28:39.322Z,98987.50
2022-09-20T11:31:26.726Z,98942.47
2022-09-20T11:33:59.413Z,98930.84
2022-09-20T11:36:39.471Z,98932.25
2022-09-20T11:39:20.828Z,98993.44
2022-09-20T11:41:51.626Z,99044.81
2022-09-20T11:44:19.799Z,99149.50
2022-09-20T11:46:54.795Z,99203.06
2022-09-20T11:49:28.142Z,99275.00
2022-09-20T11:52:22.491Z,99296.88
2022-09-20T11:55:20.263Z,99331.28
2022-09-20T11:58:02.298Z,99293.06
2022-09-20T12:00:32.324Z,99333.25
2022-09-20T12:03:00.095Z,99336.53
2022-09-20T12:05:44.479Z,99341.66
2022-09-20T12:08:27.821Z,99306.19
2022-09-20T12:11:04.182Z,99274.75
2022-09-20T12:13:35.312Z,99229.34
2022-09-20T12:16:08.660Z,99226.13
2022-09-20T12:18:35.723Z,99206.03
2022-09-20T12:21:16.569Z,99227.97
2022-09-20T12:23:59.555Z,99224.06
2022-09-20T12:26:25.857Z,99249.69
2022-09-20T12:28:52.156Z,99236.50
2022-09-20T12:31:18.551Z,99260.56
2022-09-20T12:33:57.442Z,99241.28
2022-09-20T12:36:24.384Z,99238.34
2022-09-20T12:39:10.930Z,99259.81
2022-09-20T12:41:48.508Z,99293.59
2022-09-20T12:44:41.686Z,99359.41
2022-09-20T12:47:10.733Z,99341.56
2022-09-20T12:50:01.315Z,99375.47
2022-09-20T12:52:48.145Z,99427.84
2022-09-20T12:55:26.994Z,99516.63
2022-09-20T12:58:19.303Z,99530.75
2022-09-20T13:00:48.529Z,99540.50
2022-09-20T13:03:14.891Z,99546.22
2022-09-20T13:05:47.187Z,99527.59
2022-09-20T13:08:28.484Z,99543.28
2022-09-20T13:11:13.231Z,99537.16
2022-09-20T13:13:43.236Z,99527.16
2022-09-20T13:16:24.074Z,99513.72
2022-09-20T13:19:06.728Z,99480.41
2022-09-20T13:21:36.519Z,99507.69
2022-09-20T13:24:03.449Z,99505.44
2022-09-20T13:26:36.541Z,99507.69
2022-09-20T13:29:07.090Z,99490.81
2022-09-20T13:31:34.963Z,99431.78
2022-09-20T13:34:19.073Z,99330.25
2022-09-20T13:36:45.603Z,99279.19
2022-09-20T13:39:26.723Z,99298.34
2022-09-20T13:41:53.364Z,99306.59
2022-09-20T13:44:20.101Z,99306.66
2022-09-20T13:46:46.487Z,99306.50
2022-09-20T13:49:20.896Z,99309.88
2022-09-20T13:51:48.840Z,99284.88
2022-09-20T13:54:24.328Z,99284.88
2022-09-20T13:56:51.713Z,99273.88
2022-09-20T13:59:19.555Z,99271.81
2022-09-20T14:01:53.510Z,99336.91
2022-09-20T14:04:25.717Z,99391.94
2022-09-20T14:06:56.306Z,99398.56
2022-09-20T14:09:30.716Z,99398.41
2022-09-20T14:11:58.744Z,99415.00
2022-09-20T14:14:26.432Z,99412.34
2022-09-20T14:16:56.409Z,99418.00
2022-09-20T14:19:31.656Z,99430.69
2022-09-20T14:22:02.895Z,99367.41
2022-09-20T14:24:34.443Z,99415.59
2022-09-20T14:27:04.503Z,99405.91
2022-09-20T14:29:33.647Z,99436.53
2022-09-20T14:32:06.308Z,99430.22
2022-09-20T14:34:37.208Z,99422.13
2022-09-20T14:37:13.615Z,99442.13
2022-09-20T14:39:53.801Z,99438.97
2022-09-20T14:42:29.388Z,99442.09
2022-09-20T14:44:55.998Z,99419.53
2022-09-20T14:47:27.643Z,99429.31
2022-09-20T14:49:54.269Z,99426.66
2022-09-20T14:52:29.668Z,99436.78
2022-09-20T14:55:02.511Z,99409.16
2022-09-20T14:57:30.246Z,99426.50
2022-09-20T14:59:59.592Z,99405.66
2022-09-20T15:02:26.806Z,99390.22
2022-09-20T15:05:00.241Z,99375.03
2022-09-20T15:07:26.838Z,99347.94
2022-09-20T15:09:53.334Z,99387.81
2022-09-20T15:12:21.409Z,99404.47
2022-09-20T15:14:48.486Z,99416.75
2022-09-20T15:17:18.084Z,99385.31
2022-09-20T15:19:45.437Z,99347.28
2022-09-20T15:22:11.835Z,99337.53
2022-09-20T15:24:38.760Z,99329.13
2022-09-20T15:27:05.786Z,99307.22
2022-09-20T15:29:32.452Z,99344.06
2022-09-20T15:31:59.740Z,99350.78
2022-09-20T15:34:26.279Z,99361.06
2022-09-20T15:36:54.139Z,99359.38
2022-09-20T15:39:22.235Z,99365.19
2022-09-20T15:41:52.003Z,99380.97
2022-09-20T15:44:18.441Z,99364.03
2022-09-20T15:46:44.805Z,99365.53
2022-09-20T15:49:12.347Z,99371.41
2022-09-20T15:51:39.313Z,99339.19
2022-09-20T15:54:07.683Z,99357.13
2022-09-20T15:56:36.820Z,99358.53
2022-09-20T15:59:05.537Z,99379.91
2022-09-20T16:01:33.628Z,99378.09
2022-09-20T16:04:00.255Z,99328.09
2022-09-20T16:06:26.713Z,99376.50
2022-09-20T16:08:53.072Z,99359.31
2022-09-20T16:11:22.928Z,99362.06
2022-09-20T16:13:54.427Z,99364.41
2022-09-20T16:16:21.014Z,99333.00
2022-09-20T16:19:05.956Z,99345.03
2022-09-20T16:21:32.449Z,99305.25
2022-09-20T16:23:59.194Z,99269.38
2022-09-20T16:26:27.744Z,99299.97
2022-09-20T16:28:55.683Z,99277.09
2022-09-20T16:31:34.975Z,99293.88
2022-09-20T16:34:03.689Z,99283.75
2022-09-20T16:36:31.055Z,99273.88
2022-09-20T16:38:58.395Z,99275.88
2022-09-20T16:41:26.944Z,99269.63
2022-09-20T16:43:53.589Z,99260.66
2022-09-20T16:46:22.036Z,99241.00
2022-09-20T16:48:49.816Z,99240.28
2022-09-20T16:51:16.175Z,99220.78
2022-09-20T16:53:43.451Z,99220.16
2022-09-20T16:56:19.152Z,99223.84
2022-09-20T16:58:45.842Z,99210.66
2022-09-20T17:01:12.761Z,99190.84
2022-09-20T17:03:40.923Z,99189.34
2022-09-20T17:06:08.793Z,99184.44
2022-09-20T17:08:40.053Z,99192.41
2022-09-20T17:11:12.197Z,99185.28
2022-09-20T17:13:41.558Z,99152.88
2022-09-20T17:16:12.636Z,99090.81
2022-09-20T17:18:41.973Z,99071.19
2022-09-20T17:21:17.561Z,99050.84
2022-09-20T17:23:51.155Z,99056.47
2022-09-20T17:26:18.662Z,99037.78
2022-09-20T17:28:49.394Z,99028.31
2022-09-20T17:31:18.930Z,99017.75
2022-09-20T17:33:45.927Z,99004.63
2022-09-20T17:36:15.461Z,98979.31
2022-09-20T17:38:42.768Z,98947.59
2022-09-20T17:41:13.995Z,98917.81
2022-09-20T17:43:42.230Z,98885.22
2022-09-20T17:46:22.726Z,98841.53
2022-09-20T17:48:54.346Z,98809.00
2022-09-20T17:51:25.094Z,98768.00
2022-09-20T17:53:52.975Z,98716.13
2022-09-20T17:56:23.166Z,98668.91
2022-09-20T17:58:50.048Z,98621.97
2022-09-20T18:01:18.509Z,98602.53
2022-09-20T18:03:48.159Z,98578.91
2022-09-20T18:06:20.041Z,98558.50
2022-09-20T18:08:48.453Z,98526.31
2022-09-20T18:11:16.585Z,98522.31
2022-09-20T18:13:43.622Z,98496.06
2022-09-20T18:16:14.768Z,98454.56
2022-09-20T18:18:43.555Z,98449.56
2022-09-20T18:21:12.044Z,98439.16
2022-09-20T18:23:38.718Z,98425.44
2022-09-20T18:26:32.249Z,98419.19
2022-09-20T18:29:12.859Z,98143.66
2022-09-20T18:31:54.463Z,98142.28
2022-09-20T18:34:23.682Z,98139.94
2022-09-20T18:36:55.066Z,98131.75
2022-09-20T18:39:29.209Z,98114.00
2022-09-20T18:41:55.738Z,98133.84
2022-09-20T18:44:23.046Z,98129.78
2022-09-20T18:46:52.911Z,98125.94
2022-09-20T18:49:21.006Z,98126.22
2022-09-20T18:51:48.513Z,98113.88
2022-09-20T18:54:15.449Z,98119.78
2022-09-20T18:56:43.543Z,98123.09
2022-09-20T18:59:17.689Z,98134.69
2022-09-20T19:01:48.380Z,98136.72
2022-09-20T19:04:52.173Z,98150.88
2022-09-20T19:07:36.763Z,98161.72
2022-09-20T19:10:05.797Z,98159.78
2022-09-20T19:12:59.834Z,98159.16
2022-09-20T19:15:56.276Z,98164.97
2022-09-20T19:18:47.584Z,98165.81
2022-09-20T19:21:22.808Z,98144.09
2022-09-20T19:24:18.545Z,98157.31
2022-09-20T19:26:45.558Z,98161.75
2022-09-20T19:29:19.991Z,98168.75
2022-09-20T19:31:51.314Z,98167.03
2022-09-20T19:34:21.352Z,98193.19
2022-09-20T19:36:57.897Z,98214.13
2022-09-20T19:39:42.443Z,98201.97
2022-09-20T19:42:14.113Z,98204.19
2022-09-20T19:45:06.791Z,98196.63
2022-09-20T19:47:46.469Z,98190.13
2022-09-20T19:50:28.072Z,98177.63
2022-09-20T19:52:57.841Z,98174.53
2022-09-20T19:55:24.732Z,98181.09
2022-09-20T19:57:51.459Z,98177.84
2022-09-20T20:00:20.589Z,98162.63
2022-09-20T20:02:47.702Z,98180.69
2022-09-20T20:05:16.925Z,98185.44
2022-09-20T20:08:10.292Z,98177.88
2022-09-20T20:10:58.175Z,98170.78
2022-09-20T20:14:02.443Z,98170.06
2022-09-20T20:16:48.833Z,98152.31
2022-09-20T20:19:30.358Z,98144.31
2022-09-20T20:22:04.686Z,98124.38
2022-09-20T20:24:50.043Z,98108.91
2022-09-20T20:27:16.406Z,98122.91
2022-09-20T20:29:42.773Z,98111.69
2022-09-20T20:32:09.805Z,98091.25
2022-09-20T20:34:37.013Z,98093.44
2022-09-20T20:37:04.264Z,98081.22
2022-09-20T20:39:31.918Z,98070.75
2022-09-20T20:42:02.394Z,98076.28
2022-09-20T20:44:30.720Z,98053.31
2022-09-20T20:46:57.290Z,98046.66
2022-09-20T20:49:24.639Z,98054.94
2022-09-20T20:51:50.997Z,98036.13
2022-09-20T20:54:17.402Z,98044.38
2022-09-20T20:56:43.861Z,98053.50
2022-09-20T20:59:10.272Z,98034.84
2022-09-20T21:01:38.348Z,98054.59
2022-09-20T21:04:07.814Z,98059.84
2022-09-20T21:06:36.170Z,98050.19
2022-09-20T21:09:04.784Z,98070.13
2022-09-20T21:11:34.254Z,98088.41
2022-09-20T21:14:02.409Z,98075.78
2022-09-20T21:16:35.056Z,98070.56
2022-09-20T21:19:02.292Z,98077.25
2022-09-20T21:21:31.317Z,98076.25
2022-09-20T21:23:59.952Z,98072.91
2022-09-20T21:26:27.692Z,98066.56
2022-09-20T21:29:01.898Z,98079.88
2022-09-20T21:31:34.367Z,98091.03
2022-09-20T21:34:01.460Z,98087.16
2022-09-20T21:36:29.731Z,98088.84
2022-09-20T21:38:56.574Z,98096.91
2022-09-20T21:41:25.540Z,98095.91
2022-09-20T21:43:55.260Z,98086.53
2022-09-20T21:46:29.976Z,98110.72
2022-09-20T21:48:57.805Z,98111.84
2022-09-20T21:51:25.529Z,98111.00
2022-09-20T21:53:57.407Z,98118.22
2022-09-20T21:56:27.396Z,98118.22
2022-09-20T21:58:54.796Z,98106.03
2022-09-20T22:01:23.914Z,98109.09
2022-09-20T22:03:52.822Z,98103.81
2022-09-20T22:06:25.432Z,98122.63
2022-09-20T22:08:52.967Z,98122.31
2022-09-20T22:11:21.845Z,98119.41
2022-09-20T22:13:50.731Z,98122.03
2022-09-20T22:16:34.468Z,98106.13
2022-09-20T22:19:01.521Z,98114.03
2022-09-20T22:21:31.216Z,98116.94
2022-09-20T22:24:00.723Z,98122.31
2022-09-20T22:26:30.412Z,98111.28
2022-09-20T22:28:57.204Z,98088.47
2022-09-20T22:31:26.325Z,98115.72
2022-09-20T22:33:57.826Z,98104.94
2022-09-20T22:36:26.888Z,98110.19
2022-09-20T22:38:53.879Z,98099.13
2022-09-20T22:41:21.667Z,98107.69
2022-09-20T22:43:48.737Z,98098.56
2022-09-20T22:46:17.575Z,98096.63
2022-09-20T22:48:44.585Z,98099.50
2022-09-20T22:51:16.315Z,98096.72
2022-09-20T22:53:43.348Z,98091.03
2022-09-20T22:56:11.138Z,98092.75
2022-09-20T22:58:40.870Z,98094.13
2022-09-20T23:01:14.921Z,98096.38
2022-09-20T23:03:43.698Z,98088.59
2022-09-20T23:06:21.812Z,98077.25
2022-09-20T23:08:49.645Z,98100.09
2022-09-20T23:11:17.369Z,98067.31
2022-09-20T23:13:45.059Z,98073.13
2022-09-20T23:16:15.967Z,98071.44
2022-09-20T23:18:42.574Z,98031.03
2022-09-20T23:21:08.945Z,98021.63
2022-09-20T23:23:36.486Z,97994.94
2022-09-20T23:26:07.433Z,98008.88
2022-09-20T23:28:39.356Z,98001.69
2022-09-20T23:31:11.585Z,97998.13
2022-09-20T23:33:38.133Z,97980.56
2022-09-20T23:36:09.900Z,97985.34
2022-09-20T23:38:37.000Z,97967.63
2022-09-20T23:41:04.695Z,97958.09
2022-09-20T23:43:31.257Z,97956.03
2022-09-20T23:45:57.730Z,97957.94
2022-09-20T23:48:24.184Z,97956.00
2022-09-20T23:50:50.702Z,97948.13
2022-09-20T23:53:17.109Z,97923.91
2022-09-20T23:55:43.466Z,97917.03
2022-09-20T23:58:10.014Z,97920.44
